Time;durP1;ratioP1;P1;durP2;ratioP2;P2;SDS_P1;SDS_P2;PMS_P1;PMS_P2;Temp;Humidity;BMP_temperature;BMP_pressure;BME280_temperature;BME280_humidity;BME280_pressure;Samples;Min_cycle;Max_cycle;Signal;HPM_P1;HPM_P2
2021/05/12 00:00:08;;;;;;;9.60;2.80;;;8.40;99.90;;;;;;4964078;28;20508;-67
2021/05/12 00:02:34;;;;;;;7.25;2.72;;;8.40;99.90;;;;;;4965471;28;20023;-70
2021/05/12 00:05:00;;;;;;;8.05;2.90;;;8.50;99.90;;;;;;4955003;28;20034;-66
2021/05/12 00:07:26;;;;;;;4.30;3.25;;;8.60;99.90;;;;;;4960144;28;20031;-69
2021/05/12 00:09:51;;;;;;;5.28;3.00;;;8.40;99.90;;;;;;4953273;28;20027;-67
2021/05/12 00:12:17;;;;;;;7.30;2.97;;;8.40;99.90;;;;;;4963647;28;20618;-65
2021/05/12 00:14:43;;;;;;;4.80;2.78;;;8.30;99.90;;;;;;4954150;28;20012;-70
2021/05/12 00:17:10;;;;;;;5.55;2.63;;;8.50;99.90;;;;;;4958350;28;20032;-66
2021/05/12 00:19:38;;;;;;;6.03;2.45;;;8.50;99.90;;;;;;4955562;28;20067;-70
2021/05/12 00:24:36;;;;;;;6.82;2.83;;;8.40;99.90;;;;;;4961343;28;20086;-69
2021/05/12 00:27:02;;;;;;;6.53;2.85;;;8.10;99.90;;;;;;4962357;28;20451;-65
2021/05/12 00:29:28;;;;;;;5.45;2.67;;;7.90;99.90;;;;;;4952021;28;20087;-69
2021/05/12 00:31:53;;;;;;;3.90;2.13;;;7.90;99.90;;;;;;4961302;28;20034;-69
2021/05/12 00:34:19;;;;;;;5.43;3.00;;;8.20;99.90;;;;;;4954729;28;20035;-69
2021/05/12 00:36:45;;;;;;;4.70;2.58;;;7.90;99.90;;;;;;4957966;28;20026;-69
2021/05/12 00:39:11;;;;;;;8.05;2.65;;;8.00;99.90;;;;;;4951798;28;20451;-66
2021/05/12 00:41:38;;;;;;;6.63;2.53;;;8.20;99.90;;;;;;4957262;28;20089;-65
2021/05/12 00:44:14;;;;;;;7.30;2.67;;;8.30;99.90;;;;;;4953702;28;20042;-70
2021/05/12 00:46:47;;;;;;;6.07;2.40;;;7.90;99.90;;;;;;4957970;28;20055;-67
2021/05/12 00:49:13;;;;;;;6.50;2.53;;;7.70;99.90;;;;;;4957407;28;20027;-67
2021/05/12 00:51:40;;;;;;;5.20;2.65;;;7.60;99.90;;;;;;4958955;28;20041;-70
2021/05/12 00:54:06;;;;;;;3.58;2.75;;;7.70;99.90;;;;;;4956977;28;20100;-70
2021/05/12 00:56:34;;;;;;;7.35;2.72;;;7.60;99.90;;;;;;4960991;28;20496;-63
2021/05/12 00:59:00;;;;;;;5.80;2.53;;;7.50;99.90;;;;;;4954663;28;20066;-70
2021/05/12 01:01:29;;;;;;;6.78;2.30;;;7.70;99.90;;;;;;4958984;28;20577;-65
2021/05/12 01:03:55;;;;;;;9.55;3.22;;;7.80;99.90;;;;;;4967253;28;20034;-68
2021/05/12 01:06:32;;;;;;;5.65;2.60;;;7.70;99.90;;;;;;4963019;28;20027;-66
2021/05/12 01:08:58;;;;;;;7.82;2.70;;;7.70;99.90;;;;;;4968145;28;20031;-68
2021/05/12 01:11:24;;;;;;;6.78;2.60;;;7.60;99.90;;;;;;4967784;28;20435;-64
2021/05/12 01:13:50;;;;;;;5.65;2.17;;;7.70;99.90;;;;;;4961055;28;20033;-69
2021/05/12 01:16:19;;;;;;;4.90;2.40;;;7.70;99.90;;;;;;4956852;28;20076;-69
2021/05/12 01:18:46;;;;;;;7.53;2.20;;;7.50;99.90;;;;;;4964342;28;20030;-68
2021/05/12 01:21:12;;;;;;;5.88;2.38;;;7.40;99.90;;;;;;4962893;28;20050;-65
2021/05/12 01:23:41;;;;;;;5.72;2.70;;;7.60;99.90;;;;;;4968230;28;20114;-64
2021/05/12 01:26:16;;;;;;;4.75;3.00;;;7.90;99.90;;;;;;4958123;28;20109;-65
2021/05/12 01:28:44;;;;;;;6.53;2.10;;;8.10;99.90;;;;;;4970628;28;20041;-68
2021/05/12 01:31:10;;;;;;;4.95;2.60;;;8.10;99.90;;;;;;4969727;28;20034;-68
2021/05/12 01:33:37;;;;;;;4.32;2.58;;;7.90;99.90;;;;;;4968635;28;20388;-69
2021/05/12 01:36:03;;;;;;;3.22;2.28;;;8.10;99.90;;;;;;4957529;28;20027;-66
2021/05/12 01:38:30;;;;;;;6.80;2.70;;;7.90;99.90;;;;;;4969889;28;20031;-68
2021/05/12 01:40:56;;;;;;;6.57;2.28;;;7.90;99.90;;;;;;4969891;28;20042;-64
2021/05/12 01:43:22;;;;;;;5.00;2.67;;;7.90;99.90;;;;;;4965046;28;20022;-70
2021/05/12 01:45:49;;;;;;;6.57;2.90;;;7.70;99.90;;;;;;4961351;28;20046;-70
2021/05/12 01:48:15;;;;;;;4.97;2.65;;;7.90;99.90;;;;;;4960610;28;20053;-67
2021/05/12 01:50:41;;;;;;;11.23;2.33;;;8.10;99.90;;;;;;4957758;28;20031;-68
2021/05/12 01:53:07;;;;;;;5.72;2.45;;;8.00;99.90;;;;;;4969597;28;20447;-69
2021/05/12 01:55:33;;;;;;;5.88;2.75;;;8.00;99.90;;;;;;4961844;28;20051;-63
2021/05/12 01:57:59;;;;;;;5.75;2.65;;;7.80;99.90;;;;;;4966060;28;20038;-69
2021/05/12 02:00:30;;;;;;;4.15;2.80;;;7.80;99.90;;;;;;4969934;28;20121;-70
2021/05/12 02:02:56;;;;;;;6.22;3.10;;;8.00;99.90;;;;;;4967698;28;20110;-70
2021/05/12 02:05:24;;;;;;;4.88;2.80;;;8.20;99.90;;;;;;4967979;28;20046;-68
2021/05/12 02:08:12;;;;;;;4.97;2.60;;;8.20;99.90;;;;;;4968925;28;20034;-65
2021/05/12 02:10:40;;;;;;;6.88;2.15;;;8.00;99.90;;;;;;4956522;28;20047;-68
2021/05/12 02:13:06;;;;;;;4.47;2.47;;;7.90;99.90;;;;;;4961033;28;20034;-69
2021/05/12 02:15:32;;;;;;;3.38;2.50;;;8.00;99.90;;;;;;4962496;28;20023;-70
2021/05/12 02:17:58;;;;;;;4.47;2.40;;;8.10;99.90;;;;;;4961548;28;20061;-69
2021/05/12 02:20:29;;;;;;;4.15;2.60;;;8.20;99.90;;;;;;4956543;28;20043;-69
2021/05/12 02:22:55;;;;;;;4.50;3.20;;;8.20;99.90;;;;;;4961170;28;20421;-69
2021/05/12 02:25:21;;;;;;;6.18;3.20;;;7.90;99.90;;;;;;4957806;28;20396;-67
2021/05/12 02:27:46;;;;;;;7.20;3.13;;;7.70;99.90;;;;;;4966798;28;20026;-69
2021/05/12 02:30:12;;;;;;;4.18;2.92;;;7.60;99.90;;;;;;4954892;28;20031;-69
2021/05/12 02:32:38;;;;;;;4.13;2.55;;;7.90;99.90;;;;;;4965932;28;20023;-69
2021/05/12 02:35:06;;;;;;;8.25;2.53;;;7.90;99.90;;;;;;4956959;28;20043;-67
2021/05/12 02:37:32;;;;;;;3.33;2.40;;;8.00;99.90;;;;;;4957301;28;20027;-67
2021/05/12 02:39:58;;;;;;;7.88;2.72;;;7.90;99.90;;;;;;4953175;28;20039;-65
2021/05/12 02:42:23;;;;;;;6.05;2.45;;;7.90;99.90;;;;;;4960843;28;20026;-66
2021/05/12 02:44:49;;;;;;;4.93;3.03;;;7.90;99.90;;;;;;4957007;28;20031;-63
2021/05/12 02:47:15;;;;;;;3.85;2.60;;;7.60;99.90;;;;;;4962246;28;20059;-69
2021/05/12 02:49:41;;;;;;;6.70;2.30;;;7.60;99.90;;;;;;4952733;28;20015;-66
2021/05/12 02:52:07;;;;;;;4.20;2.80;;;7.70;99.90;;;;;;4960778;28;20027;-66
2021/05/12 02:54:36;;;;;;;3.22;2.45;;;7.60;99.90;;;;;;4970224;28;20511;-67
2021/05/12 02:57:03;;;;;;;6.40;3.33;;;7.50;99.90;;;;;;4962400;28;20117;-64
2021/05/12 02:59:29;;;;;;;7.65;2.83;;;7.50;99.90;;;;;;4971539;28;20549;-69
2021/05/12 03:01:54;;;;;;;7.40;2.65;;;7.50;99.90;;;;;;4963174;28;20027;-65
2021/05/12 03:04:21;;;;;;;6.03;2.65;;;7.60;99.90;;;;;;4961601;28;20586;-65
2021/05/12 03:06:47;;;;;;;9.70;2.40;;;7.50;99.90;;;;;;4958110;28;20032;-68
2021/05/12 03:09:14;;;;;;;5.22;2.95;;;7.60;99.90;;;;;;4971020;28;20030;-69
2021/05/12 03:11:40;;;;;;;5.35;2.63;;;7.50;99.90;;;;;;4964931;28;20047;-69
2021/05/12 03:14:07;;;;;;;4.22;2.83;;;7.60;99.90;;;;;;4961776;28;20031;-68
2021/05/12 03:16:32;;;;;;;10.98;3.50;;;7.60;99.90;;;;;;4959508;28;20031;-68
2021/05/12 03:18:59;;;;;;;7.13;2.40;;;7.50;99.90;;;;;;4965027;28;20117;-69
2021/05/12 03:21:25;;;;;;;6.32;2.47;;;7.60;99.90;;;;;;4957937;28;20633;-68
2021/05/12 03:23:51;;;;;;;3.63;2.70;;;7.60;99.90;;;;;;4965167;28;20019;-65
2021/05/12 03:26:17;;;;;;;4.35;2.75;;;7.70;99.90;;;;;;4968746;28;20047;-66
2021/05/12 03:28:44;;;;;;;4.47;2.35;;;7.50;99.90;;;;;;4962307;28;20444;-67
2021/05/12 03:31:10;;;;;;;6.47;3.28;;;7.60;99.90;;;;;;4964561;28;20038;-68
2021/05/12 03:33:36;;;;;;;4.95;2.28;;;7.50;99.90;;;;;;4962298;28;20033;-69
2021/05/12 03:36:03;;;;;;;10.38;2.63;;;7.50;99.90;;;;;;4960097;28;20036;-69
2021/05/12 03:38:28;;;;;;;4.10;2.50;;;7.20;99.90;;;;;;4955981;28;20026;-68
2021/05/12 03:40:54;;;;;;;2.75;2.30;;;7.10;99.90;;;;;;4959871;28;20098;-69
2021/05/12 03:43:20;;;;;;;5.78;2.13;;;7.20;99.90;;;;;;4958181;28;20031;-68
2021/05/12 03:45:45;;;;;;;4.80;2.40;;;7.50;99.90;;;;;;4957563;28;20027;-69
2021/05/12 03:48:11;;;;;;;7.47;2.55;;;7.60;99.90;;;;;;4957090;28;20030;-62
2021/05/12 03:50:37;;;;;;;6.15;2.00;;;7.50;99.90;;;;;;4962477;28;20046;-62
2021/05/12 03:53:03;;;;;;;5.80;2.30;;;7.50;99.90;;;;;;4960685;28;20503;-64
2021/05/12 03:55:29;;;;;;;3.03;1.50;;;7.40;99.90;;;;;;4961706;28;20032;-64
2021/05/12 03:57:55;;;;;;;6.75;1.95;;;7.50;99.90;;;;;;4966075;28;20023;-64
2021/05/12 04:00:21;;;;;;;5.93;1.65;;;7.50;99.90;;;;;;4969264;28;20053;-69
2021/05/12 04:02:47;;;;;;;4.93;1.60;;;7.40;99.90;;;;;;4971032;28;20547;-65
2021/05/12 04:05:14;;;;;;;4.50;2.08;;;7.50;99.90;;;;;;4973011;28;20026;-68
2021/05/12 04:07:40;;;;;;;7.63;1.75;;;7.50;99.90;;;;;;4971785;28;20029;-68
2021/05/12 04:10:08;;;;;;;5.55;1.80;;;7.50;99.90;;;;;;4971401;28;20039;-68
2021/05/12 04:12:34;;;;;;;5.00;2.28;;;7.50;99.90;;;;;;4967120;28;20053;-68
2021/05/12 04:15:00;;;;;;;3.83;1.92;;;7.50;99.90;;;;;;4982046;28;20038;-66
2021/05/12 04:17:27;;;;;;;4.55;1.73;;;7.30;99.90;;;;;;4961917;28;20018;-69
2021/05/12 04:19:54;;;;;;;6.20;1.83;;;7.40;99.90;;;;;;4962183;28;20042;-68
2021/05/12 04:22:19;;;;;;;4.82;1.90;;;7.50;99.90;;;;;;4957663;28;20042;-68
2021/05/12 04:24:45;;;;;;;6.00;1.95;;;7.50;99.90;;;;;;4957518;28;20031;-68
2021/05/12 04:27:11;;;;;;;5.97;2.03;;;7.60;99.90;;;;;;4955935;28;20035;-67
2021/05/12 04:29:37;;;;;;;8.13;2.35;;;7.70;99.90;;;;;;4967677;28;20037;-69
2021/05/12 04:32:06;;;;;;;5.50;1.77;;;7.80;99.90;;;;;;4963439;28;20475;-68
2021/05/12 04:34:33;;;;;;;4.25;2.00;;;7.80;99.90;;;;;;4968486;28;20487;-66
2021/05/12 04:36:58;;;;;;;12.15;2.40;;;7.70;99.90;;;;;;4956615;28;20067;-68
2021/05/12 04:39:24;;;;;;;6.40;1.70;;;7.60;99.90;;;;;;4972621;28;20600;-69
2021/05/12 04:41:50;;;;;;;7.38;2.33;;;7.80;99.90;;;;;;4961472;28;20034;-64
2021/05/12 04:44:16;;;;;;;3.85;2.22;;;7.70;99.90;;;;;;4975725;28;20395;-69
2021/05/12 04:46:44;;;;;;;2.85;1.88;;;7.80;99.90;;;;;;4962222;28;20041;-69
2021/05/12 04:49:10;;;;;;;2.70;1.88;;;7.80;99.90;;;;;;4974829;28;20037;-70
2021/05/12 04:51:36;;;;;;;5.93;1.67;;;7.90;99.90;;;;;;4958451;28;20543;-68
2021/05/12 04:54:05;;;;;;;3.55;1.70;;;7.90;99.90;;;;;;4969580;28;20026;-66
2021/05/12 04:56:32;;;;;;;3.75;1.88;;;8.10;99.90;;;;;;4955266;28;21021;-68
2021/05/12 04:58:58;;;;;;;4.20;1.60;;;8.60;99.90;;;;;;4980230;28;20027;-68
2021/05/12 05:01:24;;;;;;;7.28;1.65;;;8.10;99.90;;;;;;4966703;28;20507;-68
2021/05/12 05:03:50;;;;;;;3.63;1.70;;;8.20;99.90;;;;;;4972174;28;20035;-68
2021/05/12 05:06:16;;;;;;;1.90;1.60;;;8.20;99.90;;;;;;4963909;28;20033;-66
2021/05/12 05:08:43;;;;;;;4.38;1.60;;;8.10;99.90;;;;;;4968227;28;20048;-71
2021/05/12 05:11:08;;;;;;;5.57;2.03;;;8.20;99.90;;;;;;4962089;28;20130;-72
2021/05/12 05:13:35;;;;;;;2.85;1.48;;;8.10;99.90;;;;;;4969862;28;20555;-72
2021/05/12 05:16:01;;;;;;;5.78;1.73;;;8.10;99.90;;;;;;4963292;28;20034;-73
2021/05/12 05:18:27;;;;;;;3.58;1.70;;;8.20;99.90;;;;;;4963740;28;20027;-73
2021/05/12 05:20:54;;;;;;;5.63;1.70;;;8.20;99.90;;;;;;4964325;28;20027;-73
2021/05/12 05:23:20;;;;;;;6.50;1.90;;;8.10;99.90;;;;;;4967952;28;20043;-73
2021/05/12 05:25:46;;;;;;;3.75;1.67;;;8.10;99.90;;;;;;4964250;28;20019;-73
2021/05/12 05:28:11;;;;;;;6.57;2.60;;;8.10;99.90;;;;;;4972909;28;20606;-70
2021/05/12 05:30:37;;;;;;;12.65;4.03;;;8.30;99.90;;;;;;4965180;28;20665;-71
2021/05/12 05:33:03;;;;;;;11.98;4.10;;;8.10;99.90;;;;;;4965798;28;20056;-71
2021/05/12 05:35:29;;;;;;;11.73;4.22;;;8.10;99.90;;;;;;4968005;28;20050;-71
2021/05/12 05:37:55;;;;;;;4.60;3.00;;;8.20;99.90;;;;;;4966188;28;20019;-71
2021/05/12 05:40:21;;;;;;;7.20;2.58;;;8.20;99.90;;;;;;4962057;28;20039;-70
2021/05/12 05:42:47;;;;;;;5.43;2.05;;;8.30;99.90;;;;;;4969351;28;20027;-64
2021/05/12 05:45:12;;;;;;;3.45;1.70;;;8.30;99.90;;;;;;4965596;28;20037;-65
2021/05/12 05:47:38;;;;;;;5.00;2.20;;;8.30;99.90;;;;;;4977879;28;20507;-65
2021/05/12 05:50:06;;;;;;;5.20;2.20;;;8.40;99.90;;;;;;4967515;28;20027;-66
2021/05/12 05:52:31;;;;;;;3.85;1.83;;;8.50;99.90;;;;;;4963667;28;20412;-66
2021/05/12 05:54:58;;;;;;;7.18;2.35;;;8.40;99.90;;;;;;4974097;28;20089;-66
2021/05/12 05:57:24;;;;;;;3.33;1.98;;;8.60;99.90;;;;;;4964919;28;20059;-65
2021/05/12 05:59:50;;;;;;;4.95;2.22;;;8.60;99.90;;;;;;4969389;28;20121;-65
2021/05/12 06:02:15;;;;;;;4.75;2.30;;;8.40;99.90;;;;;;4968217;28;20601;-66
2021/05/12 06:04:44;;;;;;;3.78;2.22;;;8.60;99.90;;;;;;4970608;28;20027;-66
2021/05/12 06:07:09;;;;;;;2.47;1.80;;;8.70;99.90;;;;;;4964306;28;20078;-66
2021/05/12 06:09:35;;;;;;;1.98;1.60;;;8.60;99.90;;;;;;4980776;28;20019;-66
2021/05/12 06:12:01;;;;;;;2.00;1.50;;;8.60;99.90;;;;;;4969521;28;20065;-66
2021/05/12 06:14:26;;;;;;;5.22;1.63;;;8.60;99.90;;;;;;4978908;28;20062;-66
2021/05/12 06:16:52;;;;;;;7.55;1.80;;;8.70;99.90;;;;;;4984452;28;20035;-66
2021/05/12 06:19:18;;;;;;;3.17;1.38;;;8.30;99.90;;;;;;4981278;28;20027;-66
2021/05/12 06:21:43;;;;;;;3.75;1.60;;;8.40;99.90;;;;;;4972147;28;20035;-66
2021/05/12 06:24:11;;;;;;;2.75;1.70;;;8.70;99.90;;;;;;4980928;28;20034;-66
2021/05/12 06:26:39;;;;;;;4.47;1.85;;;8.70;99.90;;;;;;4971164;28;20519;-66
2021/05/12 06:29:05;;;;;;;6.03;1.90;;;8.40;99.90;;;;;;4973254;28;20022;-66
2021/05/12 06:31:30;;;;;;;1.55;1.45;;;8.60;99.90;;;;;;4962782;28;20029;-66
2021/05/12 06:33:57;;;;;;;4.07;1.45;;;9.00;99.90;;;;;;4981743;28;20085;-66
2021/05/12 06:36:23;;;;;;;3.75;1.88;;;9.20;99.90;;;;;;4982390;28;20460;-65
2021/05/12 06:38:48;;;;;;;4.90;1.77;;;9.30;99.90;;;;;;4968761;28;20031;-72
2021/05/12 06:41:14;;;;;;;3.78;1.50;;;9.20;99.90;;;;;;4953581;28;20031;-71
2021/05/12 06:43:40;;;;;;;5.78;1.88;;;9.40;99.90;;;;;;4974601;28;20030;-68
2021/05/12 06:46:06;;;;;;;6.70;1.98;;;9.40;99.90;;;;;;4963263;28;20162;-72
2021/05/12 06:48:31;;;;;;;5.32;2.13;;;9.60;99.90;;;;;;4965521;28;20093;-72
2021/05/12 06:50:57;;;;;;;6.45;2.08;;;9.60;99.90;;;;;;4971738;28;20365;-70
2021/05/12 06:53:34;;;;;;;8.70;1.90;;;9.60;99.90;;;;;;4975696;28;20423;-71
2021/05/12 06:56:00;;;;;;;5.82;1.55;;;9.80;99.90;;;;;;4972782;28;20023;-72
2021/05/12 06:58:26;;;;;;;4.05;1.05;;;10.00;99.90;;;;;;4962574;28;20038;-66
2021/05/12 07:00:51;;;;;;;6.70;1.40;;;9.90;99.90;;;;;;4963921;28;20524;-67
2021/05/12 07:03:23;;;;;;;5.25;1.45;;;10.00;99.90;;;;;;4964137;28;20026;-67
2021/05/12 07:05:52;;;;;;;8.13;1.25;;;10.20;99.90;;;;;;4955154;28;20035;-69
2021/05/12 07:08:19;;;;;;;1.98;1.15;;;10.30;99.90;;;;;;4969191;28;20562;-69
2021/05/12 07:10:44;;;;;;;4.53;1.40;;;10.40;99.90;;;;;;4967001;28;20524;-67
2021/05/12 07:13:10;;;;;;;3.78;1.13;;;10.50;99.90;;;;;;4964523;28;20106;-67
2021/05/12 07:15:36;;;;;;;3.92;1.00;;;10.60;99.90;;;;;;4965326;28;20119;-67
2021/05/12 07:18:02;;;;;;;5.93;1.30;;;10.40;99.90;;;;;;4966524;28;20412;-67
2021/05/12 07:20:28;;;;;;;3.55;0.88;;;10.40;99.90;;;;;;4965524;28;20586;-67
2021/05/12 07:23:05;;;;;;;6.72;1.50;;;10.50;99.90;;;;;;4966198;28;20034;-66
2021/05/12 07:25:32;;;;;;;4.10;1.20;;;10.50;99.90;;;;;;4969008;28;20081;-67
2021/05/12 07:27:58;;;;;;;1.63;0.95;;;10.70;99.90;;;;;;4967859;28;20484;-66
2021/05/12 07:30:24;;;;;;;7.25;1.00;;;10.80;99.90;;;;;;4964768;28;20038;-70
2021/05/12 07:32:50;;;;;;;2.47;0.75;;;10.70;99.90;;;;;;4974192;28;20026;-68
2021/05/12 07:35:16;;;;;;;1.92;1.00;;;10.80;99.90;;;;;;4958098;28;20023;-67
2021/05/12 07:37:42;;;;;;;2.65;0.88;;;11.00;99.90;;;;;;4961202;28;20026;-67
2021/05/12 07:40:08;;;;;;;1.55;1.10;;;11.10;99.90;;;;;;4964359;28;20534;-68
2021/05/12 07:42:35;;;;;;;3.05;1.15;;;11.20;99.90;;;;;;4962414;28;20451;-68
2021/05/12 07:45:00;;;;;;;1.67;0.57;;;11.30;99.90;;;;;;4966444;28;20035;-68
2021/05/12 07:47:26;;;;;;;2.58;1.20;;;11.30;99.90;;;;;;4965098;28;20392;-68
2021/05/12 07:49:52;;;;;;;2.90;0.95;;;11.40;99.90;;;;;;4963589;28;20026;-68
2021/05/12 07:52:18;;;;;;;1.77;0.70;;;11.40;99.90;;;;;;4962708;28;20037;-68
2021/05/12 07:54:45;;;;;;;5.55;0.80;;;11.60;99.90;;;;;;4964084;28;20046;-68
2021/05/12 07:57:11;;;;;;;5.13;0.90;;;11.60;99.90;;;;;;4959650;28;20030;-68
2021/05/12 07:59:37;;;;;;;6.18;0.85;;;11.60;99.90;;;;;;4969299;28;20042;-68
2021/05/12 08:02:04;;;;;;;3.05;1.10;;;11.60;99.90;;;;;;4959842;28;20548;-68
2021/05/12 08:04:31;;;;;;;4.43;1.00;;;11.70;99.90;;;;;;4967350;28;20022;-68
2021/05/12 08:07:00;;;;;;;6.50;1.30;;;12.00;99.90;;;;;;4964889;28;20042;-67
2021/05/12 08:09:26;;;;;;;10.85;5.47;;;11.90;99.90;;;;;;4962600;28;20843;-68
2021/05/12 08:11:52;;;;;;;10.10;1.65;;;12.30;99.90;;;;;;4960529;28;20133;-68
2021/05/12 08:14:18;;;;;;;6.10;1.25;;;12.20;99.90;;;;;;4963897;28;20161;-67
2021/05/12 08:16:47;;;;;;;2.53;1.00;;;12.30;99.90;;;;;;4958512;28;20030;-67
2021/05/12 08:19:15;;;;;;;4.60;1.30;;;12.40;99.90;;;;;;4974892;28;20058;-67
2021/05/12 08:21:43;;;;;;;5.13;1.25;;;12.60;99.90;;;;;;4958764;28;20533;-67
2021/05/12 08:24:08;;;;;;;2.88;0.98;;;12.50;99.90;;;;;;4968707;28;20033;-66
2021/05/12 08:26:34;;;;;;;4.25;1.17;;;12.50;99.90;;;;;;4967023;28;20030;-67
2021/05/12 08:29:01;;;;;;;4.15;1.02;;;12.60;99.90;;;;;;4973014;28;20034;-67
2021/05/12 08:31:29;;;;;;;3.53;2.28;;;12.70;99.90;;;;;;4964942;28;20015;-67
2021/05/12 08:33:54;;;;;;;2.58;0.68;;;12.60;99.90;;;;;;4979558;28;20038;-66
2021/05/12 08:36:20;;;;;;;2.80;1.15;;;12.80;99.90;;;;;;4957323;28;20047;-66
2021/05/12 08:38:46;;;;;;;7.72;1.20;;;12.90;99.90;;;;;;4961933;28;20031;-66
2021/05/12 08:41:17;;;;;;;7.93;1.10;;;12.90;99.90;;;;;;4957187;28;20038;-66
2021/05/12 08:43:44;;;;;;;10.60;1.73;;;13.00;99.90;;;;;;4968953;28;20507;-66
2021/05/12 08:46:10;;;;;;;2.97;1.20;;;13.10;99.90;;;;;;4963163;28;20102;-66
2021/05/12 08:48:37;;;;;;;5.00;1.20;;;13.00;99.90;;;;;;4962914;28;20352;-66
2021/05/12 08:51:04;;;;;;;3.92;1.23;;;13.20;99.90;;;;;;4960636;28;20039;-66
2021/05/12 08:53:31;;;;;;;5.18;1.42;;;13.40;99.90;;;;;;4962286;28;20019;-66
2021/05/12 08:55:59;;;;;;;8.13;1.50;;;13.70;99.90;;;;;;4959969;28;20039;-66
2021/05/12 08:58:25;;;;;;;4.25;1.40;;;13.70;99.90;;;;;;4962136;28;20053;-67
2021/05/12 09:00:51;;;;;;;2.33;1.20;;;13.60;99.90;;;;;;4958314;28;20043;-66
2021/05/12 09:03:17;;;;;;;3.95;1.30;;;13.70;99.90;;;;;;4960580;28;20519;-67
2021/05/12 09:05:42;;;;;;;3.83;1.15;;;13.80;99.90;;;;;;4957943;28;20136;-67
2021/05/12 09:08:09;;;;;;;5.35;1.75;;;13.60;99.90;;;;;;4976092;28;20031;-67
2021/05/12 09:10:35;;;;;;;3.80;1.13;;;13.90;99.90;;;;;;4960873;28;20061;-66
2021/05/12 09:13:00;;;;;;;5.93;1.35;;;13.90;99.90;;;;;;4965575;28;20016;-66
2021/05/12 09:15:28;;;;;;;2.75;0.90;;;14.30;99.90;;;;;;4960272;28;20516;-66
2021/05/12 09:17:56;;;;;;;3.47;1.10;;;14.50;99.90;;;;;;4959770;28;20019;-66
2021/05/12 09:20:24;;;;;;;3.97;1.40;;;14.50;99.90;;;;;;4972413;28;20043;-66
2021/05/12 09:23:01;;;;;;;9.13;1.17;;;14.70;99.90;;;;;;4970073;28;20372;-66
2021/05/12 09:25:28;;;;;;;3.35;1.42;;;14.80;99.90;;;;;;4960575;28;20038;-66
2021/05/12 09:28:16;;;;;;;3.38;1.10;;;14.90;99.90;;;;;;4967995;28;20028;-66
2021/05/12 09:30:44;;;;;;;3.67;1.30;;;15.00;99.90;;;;;;4959994;28;20044;-66
2021/05/12 09:33:27;;;;;;;3.83;1.38;;;15.10;99.90;;;;;;4958166;28;20038;-66
2021/05/12 09:35:54;;;;;;;4.00;1.23;;;15.50;99.90;;;;;;4961174;28;20099;-65
2021/05/12 09:38:22;;;;;;;4.07;1.20;;;15.70;99.90;;;;;;4963485;28;20121;-65
2021/05/12 09:41:02;;;;;;;3.13;1.00;;;15.80;99.90;;;;;;4962546;28;20071;-66
2021/05/12 09:43:29;;;;;;;4.03;1.20;;;15.70;99.90;;;;;;4968153;28;20035;-66
2021/05/12 09:46:21;;;;;;;2.22;0.90;;;15.60;99.90;;;;;;4964031;28;20456;-66
2021/05/12 09:48:48;;;;;;;4.80;0.90;;;16.10;99.90;;;;;;4962051;28;20764;-65
2021/05/12 09:51:18;;;;;;;3.42;0.77;;;16.50;99.90;;;;;;4959116;28;20039;-66
2021/05/12 09:54:05;;;;;;;3.95;0.90;;;16.70;99.90;;;;;;4966109;28;20023;-66
2021/05/12 09:56:57;;;;;;;3.55;1.00;;;16.80;99.90;;;;;;4964549;28;20476;-65
2021/05/12 09:59:23;;;;;;;2.67;0.73;;;16.70;99.90;;;;;;4965907;28;20108;-65
2021/05/12 10:01:54;;;;;;;4.47;1.20;;;17.00;99.90;;;;;;4964723;28;20591;-65
2021/05/12 10:04:28;;;;;;;1.63;0.60;;;17.40;99.90;;;;;;4963553;28;20058;-66
2021/05/12 10:06:55;;;;;;;3.13;0.90;;;17.70;99.90;;;;;;4960657;28;20415;-66
2021/05/12 10:09:23;;;;;;;4.68;0.80;;;17.90;99.90;;;;;;4964072;28;20031;-66
2021/05/12 10:12:04;;;;;;;2.42;0.80;;;18.20;99.90;;;;;;4963315;28;20125;-66
2021/05/12 10:14:30;;;;;;;1.80;0.80;;;18.20;99.90;;;;;;4968930;28;20030;-67
2021/05/12 10:16:56;;;;;;;3.33;0.80;;;18.20;99.90;;;;;;4961592;28;20098;-67
2021/05/12 10:19:23;;;;;;;1.75;1.02;;;17.70;99.90;;;;;;4961281;28;20038;-67
2021/05/12 10:21:49;;;;;;;2.90;0.95;;;17.40;99.90;;;;;;4960597;28;20121;-66
2021/05/12 10:24:14;;;;;;;1.80;1.02;;;17.60;99.90;;;;;;4966241;28;20105;-66
2021/05/12 10:26:43;;;;;;;4.50;1.05;;;17.70;99.90;;;;;;4957942;28;20492;-67
2021/05/12 10:29:14;;;;;;;2.40;0.70;;;17.60;99.90;;;;;;4964377;28;20026;-66
2021/05/12 10:31:41;;;;;;;1.60;0.80;;;17.80;99.90;;;;;;4961688;28;20039;-67
2021/05/12 10:34:06;;;;;;;2.72;0.60;;;17.80;99.90;;;;;;4967310;28;20020;-67
2021/05/12 10:36:32;;;;;;;1.25;0.70;;;18.10;99.90;;;;;;4962632;28;20054;-66
2021/05/12 10:39:03;;;;;;;4.63;0.70;;;18.30;99.90;;;;;;4960147;28;20027;-66
2021/05/12 10:41:38;;;;;;;1.73;0.60;;;18.60;99.90;;;;;;4965455;28;20045;-66
2021/05/12 10:44:11;;;;;;;2.20;0.90;;;19.00;99.90;;;;;;4965483;28;20027;-66
2021/05/12 10:47:04;;;;;;;5.05;0.60;;;19.10;99.10;;;;;;4959930;28;20059;-66
2021/05/12 10:49:30;;;;;;;4.45;0.88;;;19.30;99.80;;;;;;4965660;28;20033;-67
2021/05/12 10:51:55;;;;;;;2.83;0.85;;;19.50;99.90;;;;;;4964036;28;20019;-66
2021/05/12 10:54:39;;;;;;;2.97;0.80;;;19.30;98.90;;;;;;4974576;28;20035;-67
2021/05/12 10:57:07;;;;;;;2.13;0.88;;;19.20;99.20;;;;;;4960561;28;20103;-66
2021/05/12 10:59:32;;;;;;;1.77;0.73;;;19.40;99.60;;;;;;4970467;28;20034;-67
2021/05/12 11:01:59;;;;;;;1.10;0.50;;;19.60;97.80;;;;;;4960672;28;20067;-67
2021/05/12 11:04:25;;;;;;;2.10;0.60;;;19.50;97.10;;;;;;4963258;28;20551;-66
2021/05/12 11:06:51;;;;;;;1.52;0.63;;;19.70;98.90;;;;;;4954991;28;20035;-67
2021/05/12 11:09:24;;;;;;;4.20;1.02;;;19.80;97.30;;;;;;4967730;28;20478;-66
2021/05/12 11:11:59;;;;;;;3.28;0.77;;;19.70;98.00;;;;;;4958888;28;20055;-66
2021/05/12 11:14:29;;;;;;;1.40;0.65;;;19.90;97.90;;;;;;4967360;28;20030;-66
2021/05/12 11:17:11;;;;;;;2.15;0.82;;;20.30;98.00;;;;;;4958418;28;20027;-66
2021/05/12 11:19:46;;;;;;;1.60;0.63;;;20.20;97.80;;;;;;4963291;28;20448;-67
2021/05/12 11:33:08;;;;;;;0.98;0.60;;;20.70;93.30;;;;;;4963059;28;20070;-66
2021/05/12 11:35:36;;;;;;;1.05;0.50;;;20.70;93.30;;;;;;4963120;28;20050;-67
2021/05/12 11:38:15;;;;;;;0.57;0.40;;;21.50;94.80;;;;;;4963568;28;20530;-66
2021/05/12 11:40:40;;;;;;;1.15;0.52;;;21.20;94.10;;;;;;4960841;28;20112;-66
2021/05/12 11:43:06;;;;;;;2.13;0.40;;;21.00;93.10;;;;;;4964632;28;20062;-66
2021/05/12 11:45:31;;;;;;;1.20;0.47;;;21.20;93.20;;;;;;4964901;28;20022;-67
2021/05/12 11:48:06;;;;;;;3.20;0.43;;;21.30;92.80;;;;;;4961290;28;20035;-66
2021/05/12 11:50:35;;;;;;;1.85;0.40;;;21.40;93.50;;;;;;4956068;28;20042;-67
2021/05/12 11:53:01;;;;;;;3.97;0.60;;;21.50;93.30;;;;;;4963266;28;20035;-67
2021/05/12 11:55:32;;;;;;;0.57;0.40;;;21.60;92.60;;;;;;4958316;28;20084;-67
2021/05/12 11:57:59;;;;;;;2.13;0.55;;;21.40;92.70;;;;;;4959972;28;20058;-67
2021/05/12 12:00:33;;;;;;;1.35;0.50;;;22.20;94.20;;;;;;4959691;28;20031;-68
2021/05/12 12:03:01;;;;;;;1.63;0.60;;;22.60;94.30;;;;;;4968070;28;20029;-67
2021/05/12 12:05:37;;;;;;;1.23;0.60;;;22.50;93.20;;;;;;4969535;28;20106;-67
2021/05/12 12:08:30;;;;;;;3.65;0.60;;;22.30;92.30;;;;;;4961691;28;20025;-65
2021/05/12 12:11:06;;;;;;;0.60;0.43;;;22.40;92.80;;;;;;4958004;28;20046;-67
2021/05/12 12:13:31;;;;;;;;;;;22.60;93.50;;;;;;4964319;28;20027;-67
2021/05/12 12:15:57;;;;;;;1.20;0.50;;;22.70;91.90;;;;;;4961243;28;20309;-67
2021/05/12 12:18:42;;;;;;;1.75;0.40;;;22.30;91.10;;;;;;4961925;28;20122;-67
2021/05/12 12:21:10;;;;;;;0.60;0.38;;;22.50;91.60;;;;;;4958979;28;20050;-67
2021/05/12 12:23:42;;;;;;;1.38;0.40;;;23.10;92.80;;;;;;4954695;28;20055;-67
2021/05/12 12:26:16;;;;;;;1.08;0.57;;;23.40;92.80;;;;;;4958629;28;20033;-67
2021/05/12 12:28:49;;;;;;;2.88;0.60;;;22.90;91.30;;;;;;4960885;28;20067;-66
2021/05/12 12:31:26;;;;;;;3.13;0.70;;;23.70;93.30;;;;;;4955855;28;20050;-65
2021/05/12 12:34:10;;;;;;;1.85;0.50;;;23.90;93.20;;;;;;4957911;28;20040;-66
2021/05/12 12:36:57;;;;;;;1.98;0.50;;;23.60;92.50;;;;;;4957060;28;20031;-66
2021/05/12 12:42:49;;;;;;;3.90;0.80;;;22.30;93.40;;;;;;4963726;28;20070;-66
2021/05/12 12:45:30;;;;;;;3.80;0.43;;;23.20;92.30;;;;;;4966274;28;20097;-66
2021/05/12 12:48:06;;;;;;;12.02;1.13;;;23.00;93.70;;;;;;4962290;28;20590;-66
2021/05/12 12:50:33;;;;;;;;;;;22.50;93.40;;;;;;4959380;28;20607;-66
2021/05/12 12:53:10;;;;;;;;;;;22.50;91.50;;;;;;4966044;28;19921;-66
2021/05/12 12:55:36;;;;;;;2.20;0.30;;;22.90;93.80;;;;;;4957332;28;19969;-66
2021/05/12 12:58:07;;;;;;;2.28;0.50;;;22.30;93.50;;;;;;4961766;28;20051;-64
2021/05/12 13:00:42;;;;;;;0.88;0.45;;;21.80;94.20;;;;;;4964381;28;20361;-60
2021/05/12 13:03:20;;;;;;;2.10;0.60;;;21.70;93.70;;;;;;4957464;28;20123;-60
2021/05/12 13:05:53;;;;;;;2.92;0.60;;;22.60;94.50;;;;;;4959974;28;20689;-61
2021/05/12 13:08:26;;;;;;;0.75;0.38;;;23.50;94.40;;;;;;4966080;28;20568;-61
2021/05/12 13:11:04;;;;;;;1.17;0.50;;;23.80;94.10;;;;;;4964528;28;20295;-67
2021/05/12 13:13:59;;;;;;;0.68;0.40;;;24.20;94.60;;;;;;4967818;28;20062;-61